Time;durP1;ratioP1;P1;durP2;ratioP2;P2;SDS_P1;SDS_P2;PMS_P1;PMS_P2;Temp;Humidity;BMP_temperature;BMP_pressure;BME280_temperature;BME280_humidity;BME280_pressure;Samples;Min_cycle;Max_cycle;Signal;HPM_P1;HPM_P2
2022/11/25 00:01:02;;;;;;;;;;;25.60;99.90;;;;;;5051042;28;19959;-48
2022/11/25 00:03:28;;;;;;;;;;;25.60;99.90;;;;;;5051234;28;19931;-48
2022/11/25 00:05:53;;;;;;;;;;;25.50;99.90;;;;;;5033463;28;20357;-48
2022/11/25 00:08:19;;;;;;;;;;;25.50;99.90;;;;;;5051161;28;19912;-48
2022/11/25 00:10:44;;;;;;;;;;;25.50;99.90;;;;;;5050939;28;19910;-48
2022/11/25 00:13:10;;;;;;;;;;;25.50;99.90;;;;;;5047030;28;19920;-48
2022/11/25 00:15:36;;;;;;;;;;;25.50;99.90;;;;;;5047477;28;19940;-48
2022/11/25 00:18:01;;;;;;;;;;;25.50;99.90;;;;;;5052589;28;19916;-48
2022/11/25 00:20:27;;;;;;;;;;;25.40;99.90;;;;;;5052883;28;20320;-48
2022/11/25 00:22:52;;;;;;;;;;;25.40;99.90;;;;;;5053072;28;19916;-47
2022/11/25 00:25:18;;;;;;;;;;;25.40;99.90;;;;;;5053295;28;20050;-48
2022/11/25 00:27:43;;;;;;;;;;;25.40;99.90;;;;;;5034982;28;19917;-49
2022/11/25 00:30:09;;;;;;;;;;;25.40;99.90;;;;;;5053145;28;20000;-49
2022/11/25 00:32:35;;;;;;;;;;;25.40;99.90;;;;;;5052925;28;20345;-48
2022/11/25 00:35:00;;;;;;;;;;;25.40;99.90;;;;;;5052739;28;19927;-48
2022/11/25 00:37:26;;;;;;;;;;;25.40;99.90;;;;;;5052943;28;20250;-48
2022/11/25 00:39:51;;;;;;;;;;;25.40;99.90;;;;;;5040603;28;19928;-48
2022/11/25 00:45:01;;;;;;;;;;;25.40;99.90;;;;;;5041472;28;19962;-47
2022/11/25 00:47:28;;;;;;;;;;;25.40;99.90;;;;;;5052573;28;19916;-48
2022/11/25 00:49:53;;;;;;;;;;;25.40;99.90;;;;;;5052860;28;19909;-49
2022/11/25 00:52:23;;;;;;;;;;;25.30;99.90;;;;;;5053207;28;19916;-49
2022/11/25 00:54:49;;;;;;;;;;;25.30;99.90;;;;;;5052615;28;19909;-50
2022/11/25 00:57:16;;;;;;;;;;;25.30;99.90;;;;;;5053070;28;19909;-49
2022/11/25 00:59:42;;;;;;;;;;;25.30;99.90;;;;;;5035791;28;19943;-49
2022/11/25 01:02:08;;;;;;;;;;;25.30;99.90;;;;;;5052720;28;19909;-49
2022/11/25 01:04:34;;;;;;;;;;;25.30;99.90;;;;;;5053109;28;19978;-50
2022/11/25 01:07:01;;;;;;;;;;;25.30;99.90;;;;;;5053667;28;20317;-48
2022/11/25 01:09:27;;;;;;;;;;;25.30;99.90;;;;;;5056428;28;19916;-48
2022/11/25 01:11:52;;;;;;;;;;;25.30;99.90;;;;;;5056864;28;19966;-48
2022/11/25 01:14:18;;;;;;;;;;;25.30;99.90;;;;;;5056855;28;19909;-48
2022/11/25 01:16:44;;;;;;;;;;;25.30;99.90;;;;;;5056498;28;19909;-49
2022/11/25 01:19:11;;;;;;;;;;;25.30;99.90;;;;;;5056620;28;19920;-48
2022/11/25 01:21:36;;;;;;;;;;;25.30;99.90;;;;;;5056599;28;19916;-48
2022/11/25 01:24:03;;;;;;;;;;;25.30;99.90;;;;;;5056339;28;19912;-49
2022/11/25 01:26:29;;;;;;;;;;;25.30;99.90;;;;;;5056460;28;19909;-49
2022/11/25 01:28:55;;;;;;;;;;;25.30;99.90;;;;;;5056652;28;19909;-49
2022/11/25 01:31:22;;;;;;;;;;;25.30;99.90;;;;;;5056194;28;19909;-48
2022/11/25 01:33:52;;;;;;;;;;;25.20;99.90;;;;;;5056560;28;19942;-49
2022/11/25 01:36:17;;;;;;;;;;;25.30;99.90;;;;;;5056527;28;20016;-49
2022/11/25 01:38:44;;;;;;;;;;;25.20;99.90;;;;;;5038214;28;20003;-49
2022/11/25 01:41:11;;;;;;;;;;;25.20;99.90;;;;;;5056693;28;19913;-50
2022/11/25 01:43:37;;;;;;;;;;;25.20;99.90;;;;;;5056378;28;19931;-50
2022/11/25 01:46:05;;;;;;;;;;;25.20;99.90;;;;;;5056173;28;19909;-48
2022/11/25 01:48:49;;;;;;;;;;;25.20;99.90;;;;;;5056342;28;19908;-49
2022/11/25 01:51:24;;;;;;;;;;;25.20;99.90;;;;;;5037949;28;19920;-49
2022/11/25 01:53:50;;;;;;;;;;;25.20;99.90;;;;;;5055859;28;19909;-48
2022/11/25 01:56:16;;;;;;;;;;;25.20;99.90;;;;;;5056221;28;19915;-48
2022/11/25 01:58:42;;;;;;;;;;;25.10;99.90;;;;;;5038138;28;20350;-48
2022/11/25 02:01:08;;;;;;;;;;;25.20;99.90;;;;;;5056359;28;19944;-49
2022/11/25 02:03:35;;;;;;;;;;;25.10;99.90;;;;;;5055829;28;19909;-48
2022/11/25 02:06:04;;;;;;;;;;;25.10;99.90;;;;;;5056064;28;19909;-49
2022/11/25 02:08:30;;;;;;;;;;;25.10;99.90;;;;;;5055687;28;19954;-49
2022/11/25 02:10:56;;;;;;;;;;;25.10;99.90;;;;;;5055978;28;19909;-49
2022/11/25 02:13:22;;;;;;;;;;;25.10;99.90;;;;;;5037987;28;19912;-49
2022/11/25 02:15:48;;;;;;;;;;;25.10;99.90;;;;;;5055453;28;19931;-48
2022/11/25 02:18:14;;;;;;;;;;;25.10;99.90;;;;;;5055353;28;20365;-49
2022/11/25 02:20:40;;;;;;;;;;;25.10;99.90;;;;;;5055137;28;19962;-49
2022/11/25 02:23:08;;;;;;;;;;;25.00;99.90;;;;;;5037757;28;19908;-49
2022/11/25 02:25:35;;;;;;;;;;;25.00;99.90;;;;;;5055052;28;20373;-48
2022/11/25 02:28:05;;;;;;;;;;;25.00;99.90;;;;;;5055524;28;19916;-50
2022/11/25 02:30:32;;;;;;;;;;;25.00;99.90;;;;;;5037751;28;19908;-49
2022/11/25 02:32:59;;;;;;;;;;;25.00;99.90;;;;;;5055398;28;19913;-48
2022/11/25 02:35:26;;;;;;;;;;;25.00;99.90;;;;;;5037380;28;19920;-48
2022/11/25 02:37:54;;;;;;;;;;;25.00;99.90;;;;;;5054690;28;20016;-47
2022/11/25 02:40:19;;;;;;;;;;;25.00;99.90;;;;;;5054603;28;20031;-48
2022/11/25 02:42:46;;;;;;;;;;;25.00;99.90;;;;;;5055227;28;20394;-47
2022/11/25 02:45:14;;;;;;;;;;;25.00;99.90;;;;;;5037249;28;19952;-47
2022/11/25 02:47:40;;;;;;;;;;;25.00;99.90;;;;;;5036986;28;19908;-47
2022/11/25 02:50:06;;;;;;;;;;;24.90;99.90;;;;;;5055003;28;20341;-48
2022/11/25 02:52:31;;;;;;;;;;;24.90;99.90;;;;;;5055105;28;19909;-48
2022/11/25 02:54:57;;;;;;;;;;;24.90;99.90;;;;;;5054473;28;19992;-48
2022/11/25 02:57:22;;;;;;;;;;;24.90;99.90;;;;;;5055147;28;20011;-48
2022/11/25 02:59:48;;;;;;;;;;;24.90;99.90;;;;;;5073970;22;20411;-49
2022/11/25 03:02:14;;;;;;;;;;;24.90;99.90;;;;;;5093365;28;19998;-49
2022/11/25 03:04:40;;;;;;;;;;;24.90;99.90;;;;;;5095187;28;20366;-49
2022/11/25 03:07:05;;;;;;;;;;;24.90;99.90;;;;;;5069936;28;19959;-48
2022/11/25 03:09:31;;;;;;;;;;;24.90;99.90;;;;;;5087235;28;19908;-48
2022/11/25 03:14:40;;;;;;;;;;;24.80;99.90;;;;;;5095301;28;19954;-50
2022/11/25 03:17:06;;;;;;;;;;;24.80;99.90;;;;;;5094522;28;19908;-50
2022/11/25 03:19:31;;;;;;;;;;;24.80;99.90;;;;;;5094794;28;19946;-49
2022/11/25 03:21:57;;;;;;;;;;;24.80;99.90;;;;;;5094738;28;19916;-50
2022/11/25 03:24:22;;;;;;;;;;;24.80;99.90;;;;;;5094644;28;19947;-50
2022/11/25 03:26:48;;;;;;;;;;;24.80;99.90;;;;;;5077623;28;19919;-48
2022/11/25 03:29:13;;;;;;;;;;;24.80;99.90;;;;;;5094437;28;19912;-49
2022/11/25 03:31:39;;;;;;;;;;;24.80;99.90;;;;;;5094285;28;19953;-47
2022/11/25 03:34:05;;;;;;;;;;;24.80;99.90;;;;;;5076317;28;20360;-49
2022/11/25 03:36:30;;;;;;;;;;;24.80;99.90;;;;;;5094808;28;19998;-49
2022/11/25 03:38:56;;;;;;;;;;;24.70;99.90;;;;;;5093939;28;19916;-47
2022/11/25 03:41:21;;;;;;;;;;;24.70;99.90;;;;;;5094619;28;19909;-46
2022/11/25 03:43:47;;;;;;;;;;;24.70;99.90;;;;;;5076308;28;19931;-48
2022/11/25 03:46:13;;;;;;;;;;;24.70;99.90;;;;;;5093987;28;20280;-48
2022/11/25 03:48:39;;;;;;;;;;;24.70;99.90;;;;;;5080103;28;19908;-50
2022/11/25 03:51:04;;;;;;;;;;;24.70;99.90;;;;;;5094586;28;20352;-51
2022/11/25 03:53:30;;;;;;;;;;;24.70;99.90;;;;;;5093797;28;20042;-51
2022/11/25 03:55:55;;;;;;;;;;;24.70;99.90;;;;;;5094178;28;19908;-51
2022/11/25 03:58:21;;;;;;;;;;;24.70;99.90;;;;;;5094111;28;19908;-47
2022/11/25 04:00:47;;;;;;;;;;;24.70;99.90;;;;;;5094070;28;20269;-48
2022/11/25 04:03:12;;;;;;;;;;;24.70;99.90;;;;;;5094105;28;20380;-48
2022/11/25 04:05:38;;;;;;;;;;;24.60;99.90;;;;;;5093911;28;19926;-48
2022/11/25 04:08:04;;;;;;;;;;;24.60;99.90;;;;;;5094054;28;19916;-51
2022/11/25 04:10:29;;;;;;;;;;;24.70;99.90;;;;;;5093612;28;19977;-50
2022/11/25 04:12:55;;;;;;;;;;;24.60;99.90;;;;;;5093844;28;19910;-49
2022/11/25 04:15:20;;;;;;;;;;;24.60;99.90;;;;;;5093953;28;19908;-49
2022/11/25 04:17:46;;;;;;;;;;;24.60;99.90;;;;;;5093450;28;19962;-49
2022/11/25 04:20:12;;;;;;;;;;;24.60;99.90;;;;;;5093841;28;20249;-50
2022/11/25 04:22:38;;;;;;;;;;;24.60;99.90;;;;;;5093695;28;19908;-49
2022/11/25 04:25:04;;;;;;;;;;;24.60;99.90;;;;;;5093495;28;19919;-49
2022/11/25 04:27:30;;;;;;;;;;;24.60;99.90;;;;;;5078244;28;19913;-49
2022/11/25 04:29:55;;;;;;;;;;;24.60;99.90;;;;;;5088306;28;20446;-50
2022/11/25 04:32:21;;;;;;;;;;;24.60;99.90;;;;;;5093704;28;19908;-50
2022/11/25 04:34:47;;;;;;;;;;;24.60;99.90;;;;;;5074976;28;19919;-50
2022/11/25 04:37:12;;;;;;;;;;;24.50;99.90;;;;;;5075437;28;19904;-49
2022/11/25 04:39:38;;;;;;;;;;;24.50;99.90;;;;;;5093634;28;19920;-50
2022/11/25 04:44:47;;;;;;;;;;;24.50;99.90;;;;;;5093596;28;20275;-50
2022/11/25 04:47:13;;;;;;;;;;;24.50;99.90;;;;;;5086567;28;19995;-50
2022/11/25 04:49:38;;;;;;;;;;;24.50;99.90;;;;;;5085133;28;19915;-50
2022/11/25 04:52:04;;;;;;;;;;;24.50;99.90;;;;;;5093346;28;19918;-50
2022/11/25 04:54:30;;;;;;;;;;;24.50;99.90;;;;;;5075350;28;19908;-50
2022/11/25 04:56:55;;;;;;;;;;;24.50;99.90;;;;;;5093304;28;20030;-49
2022/11/25 04:59:39;;;;;;;;;;;24.50;99.90;;;;;;5092956;28;19916;-50
2022/11/25 05:02:05;;;;;;;;;;;24.40;99.90;;;;;;5092768;28;19916;-50
2022/11/25 05:04:31;;;;;;;;;;;24.40;99.90;;;;;;5092682;28;19915;-51
2022/11/25 05:06:57;;;;;;;;;;;24.40;99.90;;;;;;5093568;28;19912;-49
2022/11/25 05:09:22;;;;;;;;;;;24.40;99.90;;;;;;5075536;28;20348;-50
2022/11/25 05:11:48;;;;;;;;;;;24.40;99.90;;;;;;5093444;28;19908;-50
2022/11/25 05:14:14;;;;;;;;;;;24.40;99.90;;;;;;5093444;28;19912;-50
2022/11/25 05:16:39;;;;;;;;;;;24.40;99.90;;;;;;5075187;28;19915;-50
2022/11/25 05:19:05;;;;;;;;;;;24.30;99.90;;;;;;5092476;28;20007;-50
2022/11/25 05:21:31;;;;;;;;;;;24.30;99.90;;;;;;5093423;28;19931;-50
2022/11/25 05:23:57;;;;;;;;;;;24.30;99.90;;;;;;5093418;28;19957;-50
2022/11/25 05:26:22;;;;;;;;;;;24.30;99.90;;;;;;5075279;28;19908;-50
2022/11/25 05:28:48;;;;;;;;;;;24.30;99.90;;;;;;5075044;28;19908;-50
2022/11/25 05:31:13;;;;;;;;;;;24.30;99.90;;;;;;5093244;28;19916;-50
2022/11/25 05:33:39;;;;;;;;;;;24.30;99.90;;;;;;5075285;28;19908;-50
2022/11/25 05:36:05;;;;;;;;;;;24.30;99.90;;;;;;5093422;28;19958;-50
2022/11/25 05:38:30;;;;;;;;;;;24.30;99.90;;;;;;5093360;28;19961;-50
2022/11/25 05:41:01;;;;;;;;;;;24.30;99.90;;;;;;5093464;28;20077;-50
2022/11/25 05:43:26;;;;;;;;;;;24.30;99.90;;;;;;5093335;28;19908;-49
2022/11/25 05:45:52;;;;;;;;;;;24.30;99.90;;;;;;5093535;28;20346;-50
2022/11/25 05:48:17;;;;;;;;;;;24.30;99.90;;;;;;5093155;28;19908;-50
2022/11/25 05:50:43;;;;;;;;;;;24.20;99.90;;;;;;5093215;28;19908;-51
2022/11/25 05:53:10;;;;;;;;;;;24.20;99.90;;;;;;5093196;28;19915;-50
2022/11/25 05:55:35;;;;;;;;;;;24.20;99.90;;;;;;5095995;28;19908;-50
2022/11/25 05:58:01;;;;;;;;;;;24.20;99.90;;;;;;5096738;28;19953;-50
2022/11/25 06:00:27;;;;;;;;;;;24.20;99.90;;;;;;5096599;28;19927;-50
2022/11/25 06:02:53;;;;;;;;;;;24.20;99.90;;;;;;5096747;28;20288;-49
2022/11/25 06:05:18;;;;;;;;;;;24.20;99.90;;;;;;5096638;28;19908;-50
2022/11/25 06:07:44;;;;;;;;;;;24.10;99.90;;;;;;5096440;28;19963;-50
2022/11/25 06:10:09;;;;;;;;;;;24.20;99.90;;;;;;5096561;28;20432;-50
2022/11/25 06:12:35;;;;;;;;;;;24.20;99.90;;;;;;5096298;28;19909;-50
2022/11/25 06:15:01;;;;;;;;;;;24.10;99.90;;;;;;5096282;28;19908;-51
2022/11/25 06:17:26;;;;;;;;;;;24.10;99.90;;;;;;5096327;28;19908;-50
2022/11/25 06:19:52;;;;;;;;;;;24.10;99.90;;;;;;5096343;28;20352;-50
2022/11/25 06:22:17;;;;;;;;;;;24.10;99.90;;;;;;5096244;28;19908;-50
2022/11/25 06:24:43;;;;;;;;;;;24.10;99.90;;;;;;5096164;28;20373;-50
2022/11/25 06:27:09;;;;;;;;;;;24.10;99.90;;;;;;5096153;28;19908;-48
2022/11/25 06:29:34;;;;;;;;;;;24.10;99.90;;;;;;5096042;28;19962;-49
2022/11/25 06:32:00;;;;;;;;;;;24.10;99.90;;;;;;5077873;28;20007;-49
2022/11/25 06:34:26;;;;;;;;;;;24.10;99.90;;;;;;5061215;28;19959;-49
2022/11/25 06:36:52;;;;;;;;;;;24.10;99.90;;;;;;5077768;28;19908;-49
2022/11/25 06:39:18;;;;;;;;;;;24.10;99.90;;;;;;5095784;28;20015;-48
2022/11/25 06:41:44;;;;;;;;;;;24.10;99.90;;;;;;5095735;28;19909;-49
2022/11/25 06:44:09;;;;;;;;;;;24.10;99.90;;;;;;5077618;28;19915;-48
2022/11/25 06:46:35;;;;;;;;;;;24.10;99.90;;;;;;5095898;28;19981;-49
2022/11/25 06:49:01;;;;;;;;;;;24.10;99.90;;;;;;5095689;28;19909;-49
2022/11/25 06:51:26;;;;;;;;;;;24.10;99.90;;;;;;5096068;28;20271;-48
2022/11/25 06:53:52;;;;;;;;;;;24.10;99.90;;;;;;5095542;28;19962;-49
2022/11/25 06:56:22;;;;;;;;;;;24.10;99.90;;;;;;5095799;28;19969;-49
2022/11/25 06:58:48;;;;;;;;;;;24.10;99.90;;;;;;5095515;28;19977;-49
2022/11/25 07:01:18;;;;;;;;;;;24.10;99.90;;;;;;5095240;28;19924;-48
2022/11/25 07:03:44;;;;;;;;;;;24.10;99.90;;;;;;5077323;28;19909;-49
2022/11/25 07:06:13;;;;;;;;;;;24.10;99.90;;;;;;5094911;28;19931;-48
2022/11/25 07:08:39;;;;;;;;;;;24.10;99.90;;;;;;5095255;28;19908;-49
2022/11/25 07:11:11;;;;;;;;;;;24.10;99.90;;;;;;5095383;28;19908;-49
2022/11/25 07:13:37;;;;;;;;;;;24.10;99.90;;;;;;5077639;28;20379;-48
2022/11/25 07:16:03;;;;;;;;;;;24.10;99.90;;;;;;5076745;28;20021;-48
2022/11/25 07:18:30;;;;;;;;;;;24.00;99.90;;;;;;5076870;28;20313;-48
2022/11/25 07:21:07;;;;;;;;;;;24.10;99.90;;;;;;5058823;28;20340;-48
2022/11/25 07:23:33;;;;;;;;;;;24.10;99.90;;;;;;5076712;28;20469;-48
2022/11/25 07:26:20;;;;;;;;;;;24.10;99.90;;;;;;5076752;28;20003;-49
2022/11/25 07:28:46;;;;;;;;;;;24.10;99.90;;;;;;5076914;28;20284;-49
2022/11/25 07:31:14;;;;;;;;;;;24.10;99.90;;;;;;5076818;28;19941;-50
2022/11/25 07:33:40;;;;;;;;;;;24.10;99.90;;;;;;5094034;28;19908;-48
2022/11/25 07:36:07;;;;;;;;;;;24.00;99.90;;;;;;5076907;28;19920;-49
2022/11/25 07:38:34;;;;;;;;;;;24.00;99.90;;;;;;5076596;28;19915;-48
2022/11/25 07:41:06;;;;;;;;;;;24.00;99.90;;;;;;5076150;28;19907;-48
2022/11/25 07:43:32;;;;;;;;;;;24.00;99.90;;;;;;5076629;28;19908;-49
2022/11/25 07:46:12;;;;;;;;;;;24.00;99.90;;;;;;5076331;28;20291;-48
2022/11/25 07:48:41;;;;;;;;;;;24.00;99.90;;;;;;5089553;28;19992;-48
2022/11/25 07:51:32;;;;;;;;;;;24.10;99.90;;;;;;5076246;28;19908;-47
2022/11/25 07:53:59;;;;;;;;;;;24.10;99.90;;;;;;5090274;28;20009;-48
2022/11/25 07:56:25;;;;;;;;;;;24.10;99.90;;;;;;5093700;28;19912;-48
2022/11/25 07:58:51;;;;;;;;;;;24.10;99.90;;;;;;5094079;28;19916;-48
2022/11/25 08:01:17;;;;;;;;;;;24.10;99.90;;;;;;5093960;28;19926;-48
2022/11/25 08:03:44;;;;;;;;;;;24.10;99.90;;;;;;5094462;28;19908;-48
2022/11/25 08:06:11;;;;;;;;;;;24.10;99.90;;;;;;5094230;28;19924;-48
2022/11/25 08:08:37;;;;;;;;;;;24.10;99.90;;;;;;5094254;28;19998;-48
2022/11/25 08:11:13;;;;;;;;;;;24.10;99.90;;;;;;5093956;28;19968;-49
2022/11/25 08:13:39;;;;;;;;;;;24.10;99.90;;;;;;5094122;28;20279;-49
2022/11/25 08:16:05;;;;;;;;;;;24.10;99.90;;;;;;5094319;28;19916;-49
2022/11/25 08:18:30;;;;;;;;;;;24.10;99.90;;;;;;5093473;28;19908;-49
2022/11/25 08:21:00;;;;;;;;;;;24.10;99.90;;;;;;5075798;28;19915;-49
2022/11/25 08:23:26;;;;;;;;;;;24.10;99.90;;;;;;5094192;28;19948;-49
2022/11/25 08:25:51;;;;;;;;;;;24.20;99.90;;;;;;5093866;28;19908;-49
2022/11/25 08:28:17;;;;;;;;;;;24.20;99.90;;;;;;5093934;28;20354;-49
2022/11/25 08:30:43;;;;;;;;;;;24.20;99.90;;;;;;5093985;28;19953;-50
2022/11/25 08:33:08;;;;;;;;;;;24.10;99.90;;;;;;5093982;28;19998;-49
2022/11/25 08:35:36;;;;;;;;;;;24.20;99.90;;;;;;5093744;28;20287;-50
2022/11/25 08:38:06;;;;;;;;;;;24.20;99.90;;;;;;5093812;28;19990;-50
2022/11/25 08:40:32;;;;;;;;;;;24.10;99.90;;;;;;5094013;28;19954;-50
2022/11/25 08:42:58;;;;;;;;;;;24.20;99.90;;;;;;5075533;28;19908;-50
2022/11/25 08:45:24;;;;;;;;;;;24.20;99.90;;;;;;5093849;28;20314;-50
2022/11/25 08:47:49;;;;;;;;;;;24.20;99.90;;;;;;5093382;28;19915;-49
2022/11/25 08:50:15;;;;;;;;;;;24.20;99.90;;;;;;5093482;28;19908;-50
2022/11/25 08:52:40;;;;;;;;;;;24.20;99.90;;;;;;5075584;28;20384;-50
2022/11/25 08:55:07;;;;;;;;;;;24.20;99.90;;;;;;5075361;28;19916;-49
2022/11/25 08:57:33;;;;;;;;;;;24.20;99.90;;;;;;5093456;28;19909;-50
2022/11/25 08:59:58;;;;;;;;;;;24.20;99.90;;;;;;5075284;28;19927;-49
2022/11/25 09:02:24;;;;;;;;;;;24.20;99.90;;;;;;5093651;28;19908;-49
2022/11/25 09:04:49;;;;;;;;;;;24.20;99.90;;;;;;5093060;28;20375;-49
2022/11/25 09:07:15;;;;;;;;;;;24.20;99.90;;;;;;5093574;28;19948;-50
2022/11/25 09:09:41;;;;;;;;;;;24.20;99.90;;;;;;5093262;28;19935;-49
2022/11/25 09:12:06;;;;;;;;;;;24.20;99.90;;;;;;5093528;28;20383;-50
2022/11/25 09:14:32;;;;;;;;;;;24.20;99.90;;;;;;5093140;28;19915;-49
2022/11/25 09:16:57;;;;;;;;;;;24.20;99.90;;;;;;5093190;28;19960;-51
2022/11/25 09:19:23;;;;;;;;;;;24.30;99.90;;;;;;5093265;28;19938;-50
2022/11/25 09:21:49;;;;;;;;;;;24.30;99.90;;;;;;5093324;28;19908;-50
2022/11/25 09:24:14;;;;;;;;;;;24.30;99.90;;;;;;5075307;28;19993;-48
2022/11/25 09:26:41;;;;;;;;;;;24.30;99.90;;;;;;5058399;28;19912;-50
2022/11/25 09:29:07;;;;;;;;;;;24.30;99.90;;;;;;5095692;28;19918;-50
2022/11/25 09:31:33;;;;;;;;;;;24.30;99.90;;;;;;5097333;28;19908;-49
2022/11/25 09:33:58;;;;;;;;;;;24.40;99.90;;;;;;5097361;28;19943;-49
2022/11/25 09:36:24;;;;;;;;;;;24.40;99.90;;;;;;5097010;28;20423;-49
2022/11/25 09:38:50;;;;;;;;;;;24.40;99.90;;;;;;5096835;28;20368;-49
2022/11/25 09:46:40;;;;;;;;;;;24.40;99.90;;;;;;5078600;28;20014;-50
2022/11/25 09:47:07;;;;;;;;;;;24.40;99.90;;;;;;5096654;28;19919;-50
2022/11/25 09:49:35;;;;;;;;;;;24.50;99.90;;;;;;5096880;28;19908;-50
2022/11/25 09:52:01;;;;;;;;;;;24.50;99.90;;;;;;5096624;28;19908;-49
2022/11/25 09:54:33;;;;;;;;;;;24.50;99.90;;;;;;5096629;28;20309;-50
2022/11/25 09:57:02;;;;;;;;;;;24.50;99.90;;;;;;5096827;28;20367;-50
2022/11/25 09:59:35;;;;;;;;;;;24.50;99.90;;;;;;5096465;28;19920;-49
2022/11/25 10:02:02;;;;;;;;;;;24.50;99.90;;;;;;5096420;28;20006;-50
2022/11/25 10:04:27;;;;;;;;;;;24.50;99.90;;;;;;5096651;28;20388;-50
2022/11/25 10:07:00;;;;;;;;;;;24.50;99.90;;;;;;5078123;28;19947;-50
2022/11/25 10:09:27;;;;;;;;;;;24.50;99.90;;;;;;5078119;28;19915;-50
2022/11/25 10:11:55;;;;;;;;;;;24.50;99.90;;;;;;5096330;28;19908;-50
2022/11/25 10:14:25;;;;;;;;;;;24.60;99.90;;;;;;5096406;28;19916;-50
2022/11/25 10:17:10;;;;;;;;;;;24.60;99.90;;;;;;5096485;28;20379;-49
2022/11/25 10:19:45;;;;;;;;;;;24.60;99.90;;;;;;5054546;28;19966;-50
2022/11/25 10:22:23;;;;;;;;;;;24.70;99.90;;;;;;5096187;28;19908;-50
2022/11/25 10:24:50;;;;;;;;;;;24.70;99.90;;;;;;5095919;28;19927;-49
2022/11/25 10:27:34;;;;;;;;;;;24.70;99.90;;;;;;5095992;28;19908;-49
2022/11/25 10:30:06;;;;;;;;;;;24.70;99.90;;;;;;5096258;28;19908;-49
2022/11/25 10:32:44;;;;;;;;;;;24.70;99.90;;;;;;5095848;28;19931;-49
2022/11/25 10:35:30;;;;;;;;;;;24.70;99.90;;;;;;5095855;28;19931;-49
2022/11/25 10:37:57;;;;;;;;;;;24.70;99.90;;;;;;5095231;28;19908;-50
2022/11/25 10:40:23;;;;;;;;;;;24.80;99.90;;;;;;5094895;28;19923;-49
2022/11/25 10:42:48;;;;;;;;;;;24.70;99.90;;;;;;5095802;28;19909;-49
2022/11/25 10:45:14;;;;;;;;;;;24.70;99.90;;;;;;5095604;28;19919;-49
2022/11/25 10:47:42;;;;;;;;;;;24.70;99.90;;;;;;5077488;28;20407;-49
2022/11/25 10:50:27;;;;;;;;;;;24.70;99.90;;;;;;5095511;28;19915;-49
2022/11/25 10:53:00;;;;;;;;;;;24.70;99.90;;;;;;5095641;28;19915;-50
2022/11/25 10:55:27;;;;;;;;;;;24.80;99.90;;;;;;5095366;28;20253;-49
2022/11/25 10:57:53;;;;;;;;;;;24.70;99.90;;;;;;5095295;28;20018;-49
2022/11/25 11:00:45;;;;;;;;;;;24.80;99.90;;;;;;5076877;28;19924;-49
2022/11/25 11:03:20;;;;;;;;;;;24.80;99.90;;;;;;5073196;28;19912;-50
2022/11/25 11:05:47;;;;;;;;;;;24.80;99.90;;;;;;5095126;28;19908;-50
2022/11/25 11:08:32;;;;;;;;;;;24.90;99.90;;;;;;5095104;28;19943;-49
2022/11/25 11:11:10;;;;;;;;;;;24.90;99.90;;;;;;5095064;28;19916;-50
2022/11/25 11:13:35;;;;;;;;;;;24.90;99.90;;;;;;5095128;28;20359;-49
2022/11/25 11:16:02;;;;;;;;;;;24.90;99.90;;;;;;5077088;28;20001;-49
2022/11/25 11:18:38;;;;;;;;;;;25.00;99.90;;;;;;5095161;28;19908;-49
2022/11/25 11:21:04;;;;;;;;;;;25.00;99.90;;;;;;5076770;28;19952;-49
2022/11/25 11:23:45;;;;;;;;;;;25.10;99.90;;;;;;5094946;28;19915;-50
2022/11/25 11:26:20;;;;;;;;;;;25.10;99.90;;;;;;5094885;28;19991;-49
2022/11/25 11:28:46;;;;;;;;;;;25.20;99.90;;;;;;5094789;28;19911;-49
2022/11/25 11:31:19;;;;;;;;;;;25.20;99.90;;;;;;5094893;28;19914;-50
2022/11/25 11:33:51;;;;;;;;;;;25.30;99.90;;;;;;5094709;28;20400;-50
2022/11/25 11:36:35;;;;;;;;;;;25.30;99.90;;;;;;5076287;28;19931;-50
2022/11/25 11:39:27;;;;;;;;;;;25.30;99.90;;;;;;5094479;28;19989;-49
2022/11/25 11:41:57;;;;;;;;;;;25.40;99.90;;;;;;5090637;28;19951;-50
2022/11/25 11:44:25;;;;;;;;;;;25.40;99.90;;;;;;5094631;28;19908;-49
2022/11/25 11:46:54;;;;;;;;;;;25.50;99.90;;;;;;5094480;28;19951;-49
2022/11/25 11:49:29;;;;;;;;;;;25.50;99.90;;;;;;5076387;28;20012;-50
2022/11/25 11:52:07;;;;;;;;;;;25.60;99.90;;;;;;5084099;28;19985;-49
2022/11/25 11:54:48;;;;;;;;;;;25.60;99.90;;;;;;5073965;28;19954;-49
2022/11/25 11:57:14;;;;;;;;;;;25.70;99.90;;;;;;5073837;28;19912;-49
2022/11/25 11:59:45;;;;;;;;;;;25.70;99.90;;;;;;5073644;28;19927;-48
2022/11/25 12:02:18;;;;;;;;;;;25.70;99.90;;;;;;5073885;28;20412;-48
2022/11/25 12:05:01;;;;;;;;;;;25.70;99.90;;;;;;5073765;28;19916;-48
2022/11/25 12:07:27;;;;;;;;;;;25.70;99.90;;;;;;5073110;28;19913;-49
2022/11/25 12:10:05;;;;;;;;;;;25.80;99.90;;;;;;5073027;28;19917;-48
2022/11/25 12:12:42;;;;;;;;;;;25.80;99.90;;;;;;5071848;28;20429;-49
2022/11/25 12:15:18;;;;;;;;;;;25.80;99.90;;;;;;5073394;28;20360;-49
2022/11/25 12:17:55;;;;;;;;;;;25.90;99.90;;;;;;5055164;28;20003;-49
2022/11/25 12:20:30;;;;;;;;;;;25.90;99.90;;;;;;5073760;28;19916;-49
2022/11/25 12:23:22;;;;;;;;;;;26.00;99.90;;;;;;5072866;28;20221;-49
2022/11/25 12:25:50;;;;;;;;;;;26.00;99.90;;;;;;5073536;28;19909;-49
2022/11/25 12:28:24;;;;;;;;;;;26.10;99.90;;;;;;5073481;28;19920;-51
2022/11/25 12:31:10;;;;;;;;;;;26.10;99.90;;;;;;5073014;28;19920;-49
2022/11/25 12:33:48;;;;;;;;;;;26.10;99.90;;;;;;5070883;28;19915;-49
2022/11/25 12:36:19;;;;;;;;;;;26.20;99.90;;;;;;5073582;28;20276;-49
2022/11/25 12:38:49;;;;;;;;;;;26.20;99.90;;;;;;5073233;28;19919;-49
2022/11/25 12:41:20;;;;;;;;;;;26.20;99.90;;;;;;5072228;28;19916;-50
2022/11/25 12:44:04;;;;;;;;;;;26.30;99.90;;;;;;5072655;28;19913;-49
2022/11/25 12:46:40;;;;;;;;;;;26.30;99.90;;;;;;5073309;28;20061;-50
2022/11/25 12:49:12;;;;;;;;;;;26.30;99.90;;;;;;5073326;28;19915;-50
2022/11/25 12:51:43;;;;;;;;;;;26.40;99.90;;;;;;5055200;28;19914;-49
2022/11/25 12:54:12;;;;;;;;;;;26.40;99.90;;;;;;5071433;28;19978;-49
2022/11/25 12:56:50;;;;;;;;;;;26.40;99.90;;;;;;5071609;28;19909;-49
2022/11/25 12:59:18;;;;;;;;;;;26.40;99.90;;;;;;5072224;28;19912;-49
2022/11/25 13:01:44;;;;;;;;;;;26.40;99.90;;;;;;5072886;28;20399;-49
2022/11/25 13:04:16;;;;;;;;;;;26.50;99.90;;;;;;5075415;28;19908;-50
2022/11/25 13:06:41;;;;;;;;;;;26.50;99.90;;;;;;5076753;28;20349;-50
2022/11/25 13:09:18;;;;;;;;;;;26.50;99.90;;;;;;5077252;28;19916;-49
2022/11/25 13:12:03;;;;;;;;;;;26.50;99.90;;;;;;5059397;28;19948;-49
2022/11/25 13:14:54;;;;;;;;;;;26.60;99.90;;;;;;5077219;28;19915;-50
2022/11/25 13:17:21;;;;;;;;;;;26.60;99.90;;;;;;5077081;28;20426;-49
2022/11/25 13:19:46;;;;;;;;;;;26.60;99.90;;;;;;5076935;28;19920;-50
2022/11/25 13:22:22;;;;;;;;;;;26.60;99.90;;;;;;5077374;28;19962;-49
2022/11/25 13:24:48;;;;;;;;;;;26.70;99.90;;;;;;5076916;28;19908;-49
2022/11/25 13:27:52;;;;;;;;;;;26.70;99.90;;;;;;5077069;28;19909;-50
2022/11/25 13:30:32;;;;;;;;;;;26.70;99.90;;;;;;5076565;28;19909;-50
2022/11/25 13:33:10;;;;;;;;;;;26.70;99.90;;;;;;5076899;28;19915;-50
2022/11/25 13:35:42;;;;;;;;;;;26.70;99.90;;;;;;5059022;28;20265;-49
2022/11/25 13:38:27;;;;;;;;;;;26.70;99.90;;;;;;5076652;28;19962;-50
2022/11/25 13:41:00;;;;;;;;;;;26.70;99.90;;;;;;5076460;28;20384;-49
2022/11/25 13:43:26;;;;;;;;;;;26.70;99.90;;;;;;5076838;28;20063;-49
2022/11/25 13:45:52;;;;;;;;;;;26.70;99.90;;;;;;5076727;28;20347;-49
2022/11/25 13:48:18;;;;;;;;;;;26.70;99.90;;;;;;5076127;28;19908;-49
2022/11/25 13:50:44;;;;;;;;;;;26.70;99.90;;;;;;5076543;28;20004;-49
2022/11/25 13:53:24;;;;;;;;;;;26.70;99.90;;;;;;5076612;28;19908;-48
2022/11/25 13:55:50;;;;;;;;;;;26.70;99.90;;;;;;5076484;28;19909;-49
2022/11/25 13:58:16;;;;;;;;;;;26.70;99.90;;;;;;5076278;28;19916;-49
2022/11/25 14:00:46;;;;;;;;;;;26.70;99.90;;;;;;5076056;28;19921;-49
2022/11/25 14:03:39;;;;;;;;;;;26.70;99.90;;;;;;5076065;28;19912;-49
2022/11/25 14:06:11;;;;;;;;;;;26.70;99.90;;;;;;5056113;28;19912;-48
2022/11/25 14:08:42;;;;;;;;;;;26.70;99.90;;;;;;5076227;28;20265;-49
2022/11/25 14:11:08;;;;;;;;;;;26.70;99.90;;;;;;5076198;28;19932;-49
2022/11/25 14:13:48;;;;;;;;;;;26.80;99.90;;;;;;5058235;28;19908;-49
2022/11/25 14:16:34;;;;;;;;;;;26.80;99.90;;;;;;5074871;28;19998;-49
2022/11/25 14:19:19;;;;;;;;;;;26.80;99.90;;;;;;5037244;28;19912;-49
2022/11/25 14:22:01;;;;;;;;;;;26.80;99.90;;;;;;5057929;28;19909;-49
2022/11/25 14:24:28;;;;;;;;;;;26.70;99.90;;;;;;5076276;28;19996;-48
2022/11/25 14:26:56;;;;;;;;;;;26.80;99.90;;;;;;5057961;28;19919;-48
2022/11/25 14:29:31;;;;;;;;;;;26.80;99.90;;;;;;5041388;28;19954;-48
2022/11/25 14:32:13;;;;;;;;;;;26.80;99.90;;;;;;5075863;28;19919;-49
2022/11/25 14:34:41;;;;;;;;;;;26.80;99.90;;;;;;5057896;28;19923;-48
2022/11/25 14:37:28;;;;;;;;;;;26.80;99.90;;;;;;5075607;28;20288;-48